Time;durP1;ratioP1;P1;durP2;ratioP2;P2;SDS_P1;SDS_P2;PMS_P1;PMS_P2;Temp;Humidity;BMP_temperature;BMP_pressure;BME280_temperature;BME280_humidity;BME280_pressure;Samples;Min_cycle;Max_cycle;Signal;HPM_P1;HPM_P2
2022/07/07 00:01:23;;;;;;;;;;;16.00;80.30;;;;;;5018377;28;19939;-51
2022/07/07 00:04:08;;;;;;;;;;;16.00;80.30;;;;;;5033372;28;19920;-52
2022/07/07 00:06:52;;;;;;;;;;;16.10;79.80;;;;;;5032415;28;19919;-53
2022/07/07 00:09:37;;;;;;;;;;;16.20;79.90;;;;;;5032997;28;19958;-55
2022/07/07 00:12:22;;;;;;;;;;;16.20;79.80;;;;;;5033444;28;19916;-52
2022/07/07 00:15:06;;;;;;;;;;;16.20;80.00;;;;;;5032616;28;19915;-52
2022/07/07 00:17:50;;;;;;;;;;;16.30;80.00;;;;;;5032402;28;19920;-53
2022/07/07 00:20:35;;;;;;;;;;;16.20;80.20;;;;;;5017617;28;19929;-55
2022/07/07 00:23:19;;;;;;;;;;;16.20;80.20;;;;;;5033043;28;19967;-53
2022/07/07 00:26:03;;;;;;;;;;;16.20;79.50;;;;;;5032476;28;19927;-55
2022/07/07 00:28:48;;;;;;;;;;;16.10;79.90;;;;;;5032963;28;19916;-55
2022/07/07 00:31:32;;;;;;;;;;;16.10;80.20;;;;;;5018207;28;20051;-54
2022/07/07 00:34:16;;;;;;;;;;;16.00;80.30;;;;;;5033146;28;19992;-52
2022/07/07 00:37:01;;;;;;;;;;;16.10;80.80;;;;;;5036360;28;19966;-56
2022/07/07 00:39:45;;;;;;;;;;;16.00;81.30;;;;;;5051893;28;19960;-52
2022/07/07 00:42:29;;;;;;;;;;;15.90;81.50;;;;;;5034995;28;19931;-49
2022/07/07 00:45:14;;;;;;;;;;;16.00;81.60;;;;;;5031153;28;19999;-50
2022/07/07 00:47:58;;;;;;;;;;;16.00;81.60;;;;;;5040277;28;20105;-51
2022/07/07 00:50:45;;;;;;;;;;;16.00;82.00;;;;;;5040155;28;19925;-55
2022/07/07 00:53:30;;;;;;;;;;;16.00;83.20;;;;;;5038755;28;20010;-48
2022/07/07 00:56:14;;;;;;;;;;;15.80;83.70;;;;;;5040243;28;19929;-54
2022/07/07 00:58:59;;;;;;;;;;;15.90;83.90;;;;;;5037682;28;19962;-55
2022/07/07 01:01:43;;;;;;;;;;;15.80;85.00;;;;;;5030600;28;19916;-50
2022/07/07 01:04:28;;;;;;;;;;;15.70;86.20;;;;;;5036209;28;19916;-56
2022/07/07 01:07:13;;;;;;;;;;;15.50;88.20;;;;;;5041114;28;19920;-53
2022/07/07 01:09:57;;;;;;;;;;;15.40;89.40;;;;;;5038093;28;19963;-50
2022/07/07 01:12:42;;;;;;;;;;;15.40;90.10;;;;;;5038335;28;20271;-54
2022/07/07 01:15:26;;;;;;;;;;;15.20;90.60;;;;;;5037415;28;19963;-53
2022/07/07 01:18:10;;;;;;;;;;;15.30;90.90;;;;;;5025314;28;19991;-51
2022/07/07 01:20:55;;;;;;;;;;;15.30;91.20;;;;;;5038638;28;19916;-54
2022/07/07 01:23:40;;;;;;;;;;;15.30;91.50;;;;;;5037599;28;19971;-52
2022/07/07 01:26:26;;;;;;;;;;;15.30;91.90;;;;;;5037709;28;19948;-54
2022/07/07 01:29:10;;;;;;;;;;;15.20;92.50;;;;;;5038191;28;19973;-56
2022/07/07 01:31:58;;;;;;;;;;;14.90;93.90;;;;;;5019324;28;19955;-54
2022/07/07 01:34:43;;;;;;;;;;;14.90;94.40;;;;;;5028807;28;19915;-52
2022/07/07 01:37:27;;;;;;;;;;;15.00;94.40;;;;;;5037974;28;19936;-55
2022/07/07 01:40:12;;;;;;;;;;;15.10;94.60;;;;;;5038065;28;20026;-51
2022/07/07 01:42:56;;;;;;;;;;;15.30;94.50;;;;;;5038593;28;19970;-50
2022/07/07 01:45:40;;;;;;;;;;;15.30;95.10;;;;;;5036862;28;19916;-54
2022/07/07 01:48:25;;;;;;;;;;;15.30;95.40;;;;;;5038085;28;19956;-56
2022/07/07 01:51:09;;;;;;;;;;;15.30;95.50;;;;;;5022901;28;20410;-56
2022/07/07 01:53:53;;;;;;;;;;;15.30;96.10;;;;;;5037435;28;19975;-57
2022/07/07 01:56:37;;;;;;;;;;;15.30;96.70;;;;;;5019308;28;19915;-57
2022/07/07 01:59:22;;;;;;;;;;;15.30;96.90;;;;;;5035251;28;19920;-55
2022/07/07 02:02:06;;;;;;;;;;;15.20;97.20;;;;;;5003615;28;19916;-55
2022/07/07 02:04:50;;;;;;;;;;;15.00;97.30;;;;;;5035254;28;19919;-57
2022/07/07 02:07:34;;;;;;;;;;;15.00;98.30;;;;;;5035810;28;20273;-53
2022/07/07 02:11:12;;;;;;;;;;;15.10;98.40;;;;;;5036128;28;19936;-57
2022/07/07 02:13:23;;;;;;;;;;;15.20;98.90;;;;;;5035241;28;19967;-52
2022/07/07 02:16:08;;;;;;;;;;;15.30;99.10;;;;;;5027565;28;19967;-50
2022/07/07 02:18:57;;;;;;;;;;;15.30;99.10;;;;;;5036184;28;19963;-53
2022/07/07 02:21:41;;;;;;;;;;;15.30;99.30;;;;;;5021383;28;20039;-55
2022/07/07 02:24:25;;;;;;;;;;;15.40;99.50;;;;;;5032074;28;19916;-54
2022/07/07 02:27:09;;;;;;;;;;;15.50;99.70;;;;;;5030441;28;19947;-58
2022/07/07 02:29:54;;;;;;;;;;;15.40;99.90;;;;;;5018787;28;20303;-51
2022/07/07 02:32:38;;;;;;;;;;;15.40;99.80;;;;;;5028240;28;19989;-54
2022/07/07 02:35:23;;;;;;;;;;;15.50;99.80;;;;;;5034537;28;19923;-53
2022/07/07 02:38:07;;;;;;;;;;;15.40;99.90;;;;;;5048810;28;19923;-51
2022/07/07 02:40:51;;;;;;;;;;;15.30;99.70;;;;;;5056417;28;20364;-54
2022/07/07 02:43:35;;;;;;;;;;;15.30;99.90;;;;;;5033011;28;20388;-50
2022/07/07 02:46:19;;;;;;;;;;;15.30;99.90;;;;;;5033883;28;20059;-54
2022/07/07 02:49:04;;;;;;;;;;;15.30;99.90;;;;;;5030779;28;19932;-55
2022/07/07 02:51:48;;;;;;;;;;;15.20;99.90;;;;;;5035059;28;19959;-54
2022/07/07 02:54:32;;;;;;;;;;;15.20;99.90;;;;;;5014346;28;19955;-51
2022/07/07 02:57:16;;;;;;;;;;;15.20;99.90;;;;;;5026222;28;19959;-56
2022/07/07 03:00:01;;;;;;;;;;;15.20;99.90;;;;;;5033687;28;19964;-55
2022/07/07 03:02:45;;;;;;;;;;;15.10;99.90;;;;;;5034013;28;19986;-54
2022/07/07 03:05:29;;;;;;;;;;;15.10;99.90;;;;;;5034764;28;19920;-54
2022/07/07 03:08:13;;;;;;;;;;;15.20;99.90;;;;;;5034054;28;19962;-53
2022/07/07 03:10:58;;;;;;;;;;;15.10;99.90;;;;;;5031648;28;19921;-51
2022/07/07 03:13:42;;;;;;;;;;;15.20;99.90;;;;;;5028485;28;20086;-55
2022/07/07 03:16:27;;;;;;;;;;;15.20;99.90;;;;;;5029785;28;19963;-52
2022/07/07 03:19:11;;;;;;;;;;;15.20;99.90;;;;;;5022877;28;19963;-53
2022/07/07 03:21:55;;;;;;;;;;;15.10;99.90;;;;;;5040320;28;19920;-56
2022/07/07 03:24:39;;;;;;;;;;;15.00;99.90;;;;;;5035259;28;19929;-57
2022/07/07 03:27:23;;;;;;;;;;;15.10;99.90;;;;;;5055233;28;19920;-55
2022/07/07 03:30:08;;;;;;;;;;;15.20;99.90;;;;;;5027964;28;19932;-51
2022/07/07 03:32:53;;;;;;;;;;;15.30;99.90;;;;;;5033651;28;19912;-52
2022/07/07 03:35:38;;;;;;;;;;;15.30;99.90;;;;;;5033792;28;19963;-56
2022/07/07 03:38:22;;;;;;;;;;;15.30;99.90;;;;;;5033390;28;19963;-53
2022/07/07 03:41:06;;;;;;;;;;;15.30;99.90;;;;;;5019391;28;19979;-52
2022/07/07 03:43:50;;;;;;;;;;;15.20;99.90;;;;;;5027406;28;19916;-56
2022/07/07 03:46:34;;;;;;;;;;;15.20;99.90;;;;;;5025586;28;19916;-56
2022/07/07 03:49:19;;;;;;;;;;;15.10;99.90;;;;;;5020313;28;19935;-56
2022/07/07 03:52:03;;;;;;;;;;;15.10;99.90;;;;;;5032698;28;19924;-54
2022/07/07 03:54:47;;;;;;;;;;;15.10;99.90;;;;;;5028243;28;20386;-56
2022/07/07 03:57:32;;;;;;;;;;;15.20;99.90;;;;;;5032503;28;19932;-51
2022/07/07 04:00:16;;;;;;;;;;;15.10;99.90;;;;;;5032846;28;19935;-54
2022/07/07 04:03:00;;;;;;;;;;;14.90;99.90;;;;;;5032493;28;20205;-57
2022/07/07 04:05:44;;;;;;;;;;;14.80;99.90;;;;;;5017568;28;20036;-59
2022/07/07 04:08:28;;;;;;;;;;;14.80;99.90;;;;;;5032738;28;19916;-58
2022/07/07 04:11:13;;;;;;;;;;;14.70;99.90;;;;;;5032931;28;20479;-59
2022/07/07 04:13:57;;;;;;;;;;;14.60;99.90;;;;;;5033755;28;19920;-56
2022/07/07 04:16:41;;;;;;;;;;;14.60;99.90;;;;;;5024626;28;19916;-57
2022/07/07 04:19:25;;;;;;;;;;;14.60;99.90;;;;;;5021577;28;20456;-59
2022/07/07 04:22:10;;;;;;;;;;;14.50;99.90;;;;;;5013305;28;19920;-61
2022/07/07 04:24:54;;;;;;;;;;;14.40;99.90;;;;;;4992189;28;19936;-62
2022/07/07 04:27:39;;;;;;;;;;;14.30;99.90;;;;;;5000846;28;19997;-62
2022/07/07 04:30:23;;;;;;;;;;;14.30;99.90;;;;;;5018057;28;19994;-61
2022/07/07 04:33:07;;;;;;;;;;;14.40;99.90;;;;;;5032965;28;19966;-60
2022/07/07 04:35:52;;;;;;;;;;;14.40;99.90;;;;;;5031701;28;19954;-59
2022/07/07 04:38:36;;;;;;;;;;;14.30;99.90;;;;;;5032719;28;19924;-58
2022/07/07 04:41:20;;;;;;;;;;;14.40;99.90;;;;;;5034137;28;19915;-58
2022/07/07 04:44:05;;;;;;;;;;;14.40;99.90;;;;;;5032790;28;19919;-56
2022/07/07 04:46:49;;;;;;;;;;;14.30;99.90;;;;;;5031647;28;19912;-60
2022/07/07 04:49:33;;;;;;;;;;;14.30;99.90;;;;;;5031738;28;19923;-58
2022/07/07 04:52:18;;;;;;;;;;;14.30;99.90;;;;;;5031646;28;19920;-59
2022/07/07 04:55:02;;;;;;;;;;;14.30;99.90;;;;;;5032141;28;19912;-60
2022/07/07 04:57:46;;;;;;;;;;;14.30;99.90;;;;;;5032459;28;19916;-61
2022/07/07 05:00:30;;;;;;;;;;;14.40;99.90;;;;;;5032885;28;19966;-58
2022/07/07 05:03:15;;;;;;;;;;;14.40;99.90;;;;;;5032738;28;19978;-62
2022/07/07 05:05:59;;;;;;;;;;;14.40;99.90;;;;;;5016744;28;19994;-63
2022/07/07 05:08:43;;;;;;;;;;;14.30;99.90;;;;;;5032194;28;19927;-62
2022/07/07 05:11:27;;;;;;;;;;;14.20;99.90;;;;;;5032366;28;19912;-64
2022/07/07 05:14:11;;;;;;;;;;;14.10;99.90;;;;;;5032761;28;19916;-62
2022/07/07 05:16:56;;;;;;;;;;;14.00;99.90;;;;;;5018729;28;19935;-62
2022/07/07 05:19:40;;;;;;;;;;;14.00;99.90;;;;;;5033259;28;19925;-62
2022/07/07 05:22:24;;;;;;;;;;;13.90;99.90;;;;;;5033024;28;19954;-62
2022/07/07 05:25:08;;;;;;;;;;;14.00;99.90;;;;;;5016942;28;19959;-62
2022/07/07 05:27:53;;;;;;;;;;;14.00;99.90;;;;;;5017231;28;20479;-62
2022/07/07 05:30:37;;;;;;;;;;;14.00;99.90;;;;;;5035151;28;20376;-61
2022/07/07 05:33:21;;;;;;;;;;;14.10;99.90;;;;;;5035850;28;20180;-61
2022/07/07 05:36:06;;;;;;;;;;;14.00;99.90;;;;;;5020904;28;20308;-61
2022/07/07 05:38:50;;;;;;;;;;;14.00;99.90;;;;;;5035487;28;20438;-62
2022/07/07 05:41:34;;;;;;;;;;;14.10;99.90;;;;;;5006649;28;20347;-61
2022/07/07 05:44:19;;;;;;;;;;;14.10;99.90;;;;;;5020229;28;19915;-64
2022/07/07 05:47:03;;;;;;;;;;;14.10;99.90;;;;;;5035842;28;20002;-63
2022/07/07 05:49:47;;;;;;;;;;;14.10;99.90;;;;;;5035703;28;19916;-61
2022/07/07 05:52:32;;;;;;;;;;;14.10;99.90;;;;;;5021226;28;19927;-62
2022/07/07 05:55:16;;;;;;;;;;;14.10;99.90;;;;;;5019432;28;19920;-62
2022/07/07 05:58:00;;;;;;;;;;;14.10;99.90;;;;;;5035475;28;20380;-60
2022/07/07 06:00:44;;;;;;;;;;;14.00;99.90;;;;;;5035206;28;19916;-60
2022/07/07 06:03:29;;;;;;;;;;;14.10;99.90;;;;;;5034851;28;19935;-62
2022/07/07 06:06:13;;;;;;;;;;;14.20;99.90;;;;;;5035018;28;19915;-61
2022/07/07 06:08:57;;;;;;;;;;;14.20;99.90;;;;;;5033299;28;19966;-59
2022/07/07 06:11:41;;;;;;;;;;;14.20;99.90;;;;;;5041019;28;19915;-58
2022/07/07 06:14:26;;;;;;;;;;;14.30;99.90;;;;;;5020195;28;19923;-55
2022/07/07 06:17:10;;;;;;;;;;;14.30;99.90;;;;;;5020846;28;19924;-55
2022/07/07 06:19:55;;;;;;;;;;;14.40;99.90;;;;;;5021673;28;19967;-51
2022/07/07 06:22:39;;;;;;;;;;;14.30;99.90;;;;;;5035953;28;19935;-54
2022/07/07 06:25:23;;;;;;;;;;;14.40;99.90;;;;;;5021382;28;19955;-57
2022/07/07 06:28:07;;;;;;;;;;;14.40;99.90;;;;;;5033728;28;20335;-57
2022/07/07 06:30:52;;;;;;;;;;;14.40;99.90;;;;;;5033553;28;20419;-59
2022/07/07 06:33:36;;;;;;;;;;;14.40;99.90;;;;;;5030005;28;19927;-56
2022/07/07 06:36:20;;;;;;;;;;;14.40;99.90;;;;;;5029277;28;19959;-57
2022/07/07 06:39:04;;;;;;;;;;;14.50;99.90;;;;;;5026710;28;19923;-57
2022/07/07 06:41:48;;;;;;;;;;;14.50;99.90;;;;;;5028775;28;19932;-55
2022/07/07 06:44:33;;;;;;;;;;;14.50;99.90;;;;;;5031908;28;19920;-50
2022/07/07 06:47:17;;;;;;;;;;;14.50;99.90;;;;;;5027196;28;20003;-52
2022/07/07 06:50:01;;;;;;;;;;;14.50;99.90;;;;;;5025832;28;19936;-57
2022/07/07 06:52:45;;;;;;;;;;;14.50;99.90;;;;;;5038115;28;20007;-57
2022/07/07 06:55:30;;;;;;;;;;;14.50;99.90;;;;;;5035669;28;19916;-57
2022/07/07 06:58:14;;;;;;;;;;;14.50;99.90;;;;;;5024571;28;19948;-54
2022/07/07 07:00:58;;;;;;;;;;;14.50;99.90;;;;;;5019422;28;20290;-53
2022/07/07 07:03:42;;;;;;;;;;;14.50;99.90;;;;;;5033019;28;19955;-55
2022/07/07 07:06:28;;;;;;;;;;;14.60;99.90;;;;;;5026546;28;19971;-53
2022/07/07 07:09:13;;;;;;;;;;;14.60;99.90;;;;;;5024829;28;19967;-50
2022/07/07 07:11:57;;;;;;;;;;;14.60;99.90;;;;;;5032581;28;19919;-57
2022/07/07 07:14:41;;;;;;;;;;;14.60;99.90;;;;;;5033806;28;20006;-55
2022/07/07 07:17:25;;;;;;;;;;;14.50;99.90;;;;;;5032547;28;19955;-54
2022/07/07 07:20:12;;;;;;;;;;;14.40;99.90;;;;;;5032797;28;20008;-57
2022/07/07 07:22:55;;;;;;;;;;;14.40;99.90;;;;;;5032456;28;19955;-58
2022/07/07 07:25:40;;;;;;;;;;;14.40;99.90;;;;;;5030052;28;19983;-58
2022/07/07 07:28:24;;;;;;;;;;;14.40;99.90;;;;;;5030577;28;19920;-56
2022/07/07 07:31:11;;;;;;;;;;;14.40;99.90;;;;;;5031827;28;20422;-60
2022/07/07 07:33:55;;;;;;;;;;;14.40;99.90;;;;;;5014890;28;20264;-58
2022/07/07 07:36:39;;;;;;;;;;;14.40;99.90;;;;;;5030364;28;20367;-57
2022/07/07 07:39:23;;;;;;;;;;;14.40;99.90;;;;;;5030754;28;19927;-57
2022/07/07 07:42:08;;;;;;;;;;;14.40;99.90;;;;;;5016741;28;19967;-58
2022/07/07 07:45:10;;;;;;;;;;;14.50;99.90;;;;;;5031946;28;20415;-53
2022/07/07 07:47:56;;;;;;;;;;;14.50;99.90;;;;;;5030010;28;19915;-56
2022/07/07 07:50:41;;;;;;;;;;;14.60;99.90;;;;;;5030700;28;19912;-56
2022/07/07 07:53:25;;;;;;;;;;;14.60;99.90;;;;;;5027655;28;20010;-56
2022/07/07 07:56:10;;;;;;;;;;;14.60;99.90;;;;;;5025945;28;19920;-61
2022/07/07 07:58:54;;;;;;;;;;;14.70;99.90;;;;;;5018969;28;19923;-61
2022/07/07 08:01:38;;;;;;;;;;;14.60;99.90;;;;;;5031223;28;19963;-60
2022/07/07 08:04:22;;;;;;;;;;;14.60;99.90;;;;;;5020168;28;19955;-59
2022/07/07 08:07:07;;;;;;;;;;;14.60;99.90;;;;;;5028116;28;19916;-61
2022/07/07 08:09:51;;;;;;;;;;;14.60;99.90;;;;;;4998851;28;19952;-62
2022/07/07 08:12:35;;;;;;;;;;;14.70;99.90;;;;;;5031662;28;19931;-63
2022/07/07 08:15:20;;;;;;;;;;;14.70;99.90;;;;;;5029212;28;19916;-61
2022/07/07 08:18:04;;;;;;;;;;;14.70;99.90;;;;;;5031794;28;20379;-61
2022/07/07 08:20:48;;;;;;;;;;;14.70;99.90;;;;;;5030269;28;19935;-57
2022/07/07 08:23:32;;;;;;;;;;;14.60;99.90;;;;;;5031359;28;19970;-59
2022/07/07 08:26:16;;;;;;;;;;;14.70;99.90;;;;;;5016647;28;19916;-60
2022/07/07 08:29:00;;;;;;;;;;;14.70;99.90;;;;;;5014476;28;19916;-59
2022/07/07 08:31:45;;;;;;;;;;;14.80;99.90;;;;;;5035850;28;20331;-61
2022/07/07 08:34:29;;;;;;;;;;;14.90;99.90;;;;;;5027732;28;19935;-59
2022/07/07 08:37:13;;;;;;;;;;;14.80;99.90;;;;;;5029410;28;19924;-60
2022/07/07 08:39:58;;;;;;;;;;;14.90;99.90;;;;;;5031438;28;19963;-58
2022/07/07 08:42:42;;;;;;;;;;;15.00;99.90;;;;;;5030145;28;20276;-59
2022/07/07 08:45:26;;;;;;;;;;;15.10;99.90;;;;;;5031764;28;19963;-57
2022/07/07 08:48:10;;;;;;;;;;;15.20;99.90;;;;;;5031654;28;19912;-56
2022/07/07 08:50:55;;;;;;;;;;;15.10;99.90;;;;;;5032176;28;19916;-59
2022/07/07 08:53:40;;;;;;;;;;;15.20;99.90;;;;;;5032197;28;20310;-59
2022/07/07 08:56:24;;;;;;;;;;;15.20;99.90;;;;;;5032049;28;20395;-58
2022/07/07 08:59:10;;;;;;;;;;;15.20;99.90;;;;;;5031509;28;20380;-60
2022/07/07 09:01:55;;;;;;;;;;;15.20;99.90;;;;;;5032566;28;19920;-59
2022/07/07 09:04:39;;;;;;;;;;;15.30;99.90;;;;;;5032343;28;19920;-61
2022/07/07 09:07:24;;;;;;;;;;;15.30;99.90;;;;;;5038889;28;19962;-60
2022/07/07 09:10:08;;;;;;;;;;;15.30;99.90;;;;;;5035681;28;19993;-59
2022/07/07 09:12:52;;;;;;;;;;;15.20;99.90;;;;;;5035923;28;20364;-59
2022/07/07 09:15:37;;;;;;;;;;;15.30;99.90;;;;;;5017274;28;20357;-62
2022/07/07 09:18:32;;;;;;;;;;;15.30;99.90;;;;;;5032233;28;19934;-61
2022/07/07 09:21:25;;;;;;;;;;;15.30;99.90;;;;;;5031530;28;19912;-61
2022/07/07 09:24:09;;;;;;;;;;;15.30;99.90;;;;;;5017328;28;19952;-58
2022/07/07 09:26:54;;;;;;;;;;;15.40;99.90;;;;;;5005338;28;20442;-60
2022/07/07 09:29:42;;;;;;;;;;;15.40;99.90;;;;;;5028358;28;20406;-60
2022/07/07 09:32:27;;;;;;;;;;;15.50;99.90;;;;;;5032988;28;19979;-61
2022/07/07 09:38:30;;;;;;;;;;;15.90;99.90;;;;;;5035495;28;19960;-60
2022/07/07 09:41:15;;;;;;;;;;;15.90;99.90;;;;;;5034947;28;20014;-56
2022/07/07 09:44:02;;;;;;;;;;;15.90;99.90;;;;;;5028773;28;19916;-61
2022/07/07 09:46:47;;;;;;;;;;;15.90;99.90;;;;;;5024894;28;20284;-62
2022/07/07 09:49:31;;;;;;;;;;;15.90;99.90;;;;;;5006133;28;20370;-57
2022/07/07 09:52:16;;;;;;;;;;;15.90;99.90;;;;;;5035049;28;19947;-64
2022/07/07 09:55:01;;;;;;;;;;;15.90;99.90;;;;;;5019307;28;20172;-61
2022/07/07 09:57:48;;;;;;;;;;;15.90;99.90;;;;;;5033469;28;19944;-58
2022/07/07 10:00:33;;;;;;;;;;;16.00;99.90;;;;;;5032027;28;19920;-56
2022/07/07 10:03:17;;;;;;;;;;;16.20;99.90;;;;;;5030541;28;20061;-53
2022/07/07 10:06:02;;;;;;;;;;;16.40;99.90;;;;;;5031297;28;19987;-55
2022/07/07 10:08:48;;;;;;;;;;;16.50;99.90;;;;;;5033614;28;20391;-54
2022/07/07 10:11:39;;;;;;;;;;;16.80;99.90;;;;;;5033339;28;19924;-52
2022/07/07 10:14:27;;;;;;;;;;;16.70;99.90;;;;;;5035431;28;19955;-62
2022/07/07 10:17:12;;;;;;;;;;;16.80;99.90;;;;;;5031490;28;19978;-55
2022/07/07 10:19:57;;;;;;;;;;;16.70;99.90;;;;;;5017280;28;19920;-55
2022/07/07 10:22:41;;;;;;;;;;;16.70;99.90;;;;;;5034316;28;20328;-57
2022/07/07 10:25:26;;;;;;;;;;;16.80;99.90;;;;;;5024378;28;20299;-56
2022/07/07 10:28:10;;;;;;;;;;;16.80;99.90;;;;;;5028049;28;20230;-59
2022/07/07 10:30:54;;;;;;;;;;;16.90;99.90;;;;;;5033300;28;19957;-57
2022/07/07 10:33:38;;;;;;;;;;;17.00;99.90;;;;;;5044389;28;20471;-53
2022/07/07 10:36:23;;;;;;;;;;;17.20;99.90;;;;;;5025864;28;19931;-58
2022/07/07 10:39:08;;;;;;;;;;;17.20;99.90;;;;;;5029574;28;20292;-54
2022/07/07 10:42:11;;;;;;;;;;;17.60;99.90;;;;;;5031414;28;20288;-53
2022/07/07 10:44:55;;;;;;;;;;;17.60;99.90;;;;;;5032410;28;20051;-54
2022/07/07 10:47:39;;;;;;;;;;;17.70;99.90;;;;;;5031154;28;19916;-51
2022/07/07 10:50:25;;;;;;;;;;;17.70;99.90;;;;;;5027276;28;20181;-55
2022/07/07 10:53:28;;;;;;;;;;;17.90;99.90;;;;;;5024661;28;20005;-57
2022/07/07 10:56:12;;;;;;;;;;;18.10;99.90;;;;;;5002273;28;19975;-57
2022/07/07 10:59:00;;;;;;;;;;;18.10;99.90;;;;;;5029669;28;19923;-58
2022/07/07 11:02:16;;;;;;;;;;;18.30;99.90;;;;;;5007903;28;19920;-51
2022/07/07 11:05:02;;;;;;;;;;;18.30;99.90;;;;;;4993789;28;20353;-52
2022/07/07 11:07:55;;;;;;;;;;;18.40;99.90;;;;;;5032793;28;20012;-52
2022/07/07 11:10:40;;;;;;;;;;;18.40;99.90;;;;;;5032858;28;19935;-54
2022/07/07 11:13:31;;;;;;;;;;;18.50;99.90;;;;;;5018239;28;19959;-58
2022/07/07 11:16:15;;;;;;;;;;;18.60;99.90;;;;;;5016484;28;20391;-55
2022/07/07 11:19:04;;;;;;;;;;;18.80;99.90;;;;;;5027896;28;19980;-54
2022/07/07 11:21:48;;;;;;;;;;;18.90;99.90;;;;;;5029912;28;19916;-55
2022/07/07 11:24:34;;;;;;;;;;;19.20;99.90;;;;;;5030542;28;20363;-51
2022/07/07 11:27:26;;;;;;;;;;;19.00;99.90;;;;;;5003267;28;20558;-53
2022/07/07 11:30:11;;;;;;;;;;;19.00;99.90;;;;;;5012545;28;20526;-53
2022/07/07 11:32:59;;;;;;;;;;;19.00;99.90;;;;;;5015178;28;19921;-54
2022/07/07 11:35:43;;;;;;;;;;;19.00;99.90;;;;;;5032618;28;19924;-56
2022/07/07 11:38:28;;;;;;;;;;;18.80;99.90;;;;;;5031419;28;20292;-54
2022/07/07 11:41:12;;;;;;;;;;;18.90;99.90;;;;;;5019568;28;19920;-54
2022/07/07 11:43:57;;;;;;;;;;;18.90;99.90;;;;;;4995601;28;20292;-54
2022/07/07 11:46:41;;;;;;;;;;;18.90;99.90;;;;;;5032173;28;19935;-55
2022/07/07 11:49:25;;;;;;;;;;;19.10;99.90;;;;;;5022127;28;19920;-52
2022/07/07 11:52:15;;;;;;;;;;;19.60;99.90;;;;;;5027195;28;19935;-51
2022/07/07 11:55:01;;;;;;;;;;;19.70;99.90;;;;;;5030267;28;20013;-55
2022/07/07 11:57:50;;;;;;;;;;;19.70;99.90;;;;;;5031505;28;19920;-56
2022/07/07 12:00:38;;;;;;;;;;;19.70;99.90;;;;;;5032267;28;20019;-55
2022/07/07 12:03:27;;;;;;;;;;;19.70;99.90;;;;;;5031777;28;20343;-53
2022/07/07 12:06:12;;;;;;;;;;;19.40;99.90;;;;;;5031382;28;20253;-48
2022/07/07 12:08:56;;;;;;;;;;;19.10;99.90;;;;;;5031989;28;19912;-55
2022/07/07 12:11:41;;;;;;;;;;;19.10;99.90;;;;;;5032217;28;20253;-55
2022/07/07 12:14:27;;;;;;;;;;;19.10;99.90;;;;;;5032272;28;19963;-53
2022/07/07 12:17:11;;;;;;;;;;;19.10;99.90;;;;;;5018656;28;20281;-53
2022/07/07 12:19:55;;;;;;;;;;;19.10;99.90;;;;;;5013349;28;19928;-53
2022/07/07 12:22:42;;;;;;;;;;;19.20;99.90;;;;;;5028778;28;20004;-53
2022/07/07 12:25:27;;;;;;;;;;;19.30;99.90;;;;;;5019203;28;19928;-59
2022/07/07 12:28:11;;;;;;;;;;;19.60;99.90;;;;;;5035414;28;19944;-55
2022/07/07 12:30:56;;;;;;;;;;;20.20;99.90;;;;;;5032249;28;19998;-52
2022/07/07 12:33:40;;;;;;;;;;;20.60;99.90;;;;;;5025625;28;19913;-53
2022/07/07 12:36:25;;;;;;;;;;;20.60;99.90;;;;;;5018997;28;20031;-56
2022/07/07 12:39:09;;;;;;;;;;;20.50;99.90;;;;;;5028184;28;20004;-55
2022/07/07 12:41:55;;;;;;;;;;;20.30;99.90;;;;;;5030714;28;19932;-57
2022/07/07 12:44:39;;;;;;;;;;;20.10;99.90;;;;;;5028776;28;19916;-56
2022/07/07 12:47:27;;;;;;;;;;;20.10;99.90;;;;;;5032174;28;19955;-54
2022/07/07 12:50:11;;;;;;;;;;;20.10;99.90;;;;;;5031406;28;20289;-55
2022/07/07 12:52:57;;;;;;;;;;;20.10;99.90;;;;;;5031548;28;19916;-54
2022/07/07 12:55:43;;;;;;;;;;;20.00;99.90;;;;;;5026506;28;19919;-54
2022/07/07 12:58:27;;;;;;;;;;;19.90;99.90;;;;;;5031482;28;19920;-55
2022/07/07 13:01:14;;;;;;;;;;;19.90;99.90;;;;;;5031452;28;19970;-51
2022/07/07 13:03:59;;;;;;;;;;;19.70;99.90;;;;;;5031877;28;20415;-52
2022/07/07 13:06:45;;;;;;;;;;;19.60;99.90;;;;;;5032198;28;19959;-50
2022/07/07 13:09:29;;;;;;;;;;;19.20;99.90;;;;;;5032705;28;19952;-50
2022/07/07 13:12:14;;;;;;;;;;;19.10;99.90;;;;;;5016528;28;20391;-54
2022/07/07 13:14:58;;;;;;;;;;;19.10;99.90;;;;;;5031878;28;19932;-55
2022/07/07 13:17:44;;;;;;;;;;;19.00;99.90;;;;;;5031068;28;19920;-56
2022/07/07 13:20:28;;;;;;;;;;;19.10;99.90;;;;;;5031265;28;19920;-51
2022/07/07 13:23:12;;;;;;;;;;;18.80;99.90;;;;;;5030979;28;20414;-60
2022/07/07 13:25:56;;;;;;;;;;;18.80;99.90;;;;;;5031720;28;19968;-61
2022/07/07 13:28:41;;;;;;;;;;;18.50;99.90;;;;;;5018337;28;19936;-60
2022/07/07 13:31:25;;;;;;;;;;;18.40;99.90;;;;;;5031968;28;20096;-60
2022/07/07 13:34:09;;;;;;;;;;;18.40;99.90;;;;;;5037649;28;20273;-57
2022/07/07 13:36:54;;;;;;;;;;;18.40;99.90;;;;;;5031214;28;20413;-60
2022/07/07 13:39:38;;;;;;;;;;;18.60;99.90;;;;;;5034600;28;20062;-56
2022/07/07 13:42:22;;;;;;;;;;;18.90;99.90;;;;;;5020918;28;20380;-56
2022/07/07 13:45:06;;;;;;;;;;;19.30;99.90;;;;;;5019928;28;19916;-57
2022/07/07 13:47:51;;;;;;;;;;;19.70;99.90;;;;;;5027281;28;19997;-57
2022/07/07 13:50:36;;;;;;;;;;;20.00;99.90;;;;;;5028806;28;20387;-57
2022/07/07 13:53:20;;;;;;;;;;;19.90;99.90;;;;;;5036017;28;19920;-51
2022/07/07 13:56:05;;;;;;;;;;;19.50;99.90;;;;;;5040848;28;19943;-54
2022/07/07 13:58:49;;;;;;;;;;;19.30;99.90;;;;;;5019558;28;19972;-57
2022/07/07 14:01:34;;;;;;;;;;;19.10;99.90;;;;;;5034015;28;19916;-56
2022/07/07 14:04:19;;;;;;;;;;;18.70;99.90;;;;;;5023919;28;19987;-57
2022/07/07 14:07:03;;;;;;;;;;;18.40;99.90;;;;;;5041046;28;20641;-56
2022/07/07 14:09:48;;;;;;;;;;;18.30;99.90;;;;;;5034565;28;20280;-54
2022/07/07 14:12:33;;;;;;;;;;;18.40;99.90;;;;;;5035522;28;19931;-54
2022/07/07 14:15:17;;;;;;;;;;;18.20;99.90;;;;;;5031039;28;20280;-57
2022/07/07 14:18:01;;;;;;;;;;;18.10;99.90;;;;;;5031479;28;20331;-56
2022/07/07 14:20:45;;;;;;;;;;;18.10;99.90;;;;;;5019696;28;19920;-53
2022/07/07 14:23:30;;;;;;;;;;;18.30;99.90;;;;;;5034575;28;20343;-52
2022/07/07 14:26:14;;;;;;;;;;;18.50;99.90;;;;;;5034472;28;19924;-58
2022/07/07 14:28:58;;;;;;;;;;;18.60;99.90;;;;;;5034116;28;19916;-55
2022/07/07 14:31:42;;;;;;;;;;;18.90;99.90;;;;;;5034393;28;20050;-54
2022/07/07 14:34:27;;;;;;;;;;;18.90;99.90;;;;;;5034565;28;20000;-53
2022/07/07 14:37:11;;;;;;;;;;;18.80;99.90;;;;;;5033974;28;20012;-53
2022/07/07 14:39:55;;;;;;;;;;;18.70;99.90;;;;;;5014304;28;19924;-54
2022/07/07 14:42:39;;;;;;;;;;;18.70;99.90;;;;;;5029650;28;19980;-56
2022/07/07 14:45:23;;;;;;;;;;;18.60;99.90;;;;;;5040833;28;19970;-58
2022/07/07 14:48:07;;;;;;;;;;;18.40;99.90;;;;;;5035697;28;19915;-56
2022/07/07 14:50:51;;;;;;;;;;;18.20;99.90;;;;;;5034804;28;19916;-55
2022/07/07 14:53:36;;;;;;;;;;;18.30;99.90;;;;;;5034578;28;19959;-57
2022/07/07 14:56:22;;;;;;;;;;;18.20;99.90;;;;;;5033873;28;20265;-55
2022/07/07 14:59:06;;;;;;;;;;;18.20;99.90;;;;;;5032988;28;19919;-56
2022/07/07 15:01:51;;;;;;;;;;;18.30;99.90;;;;;;5018014;28;19956;-54
2022/07/07 15:04:35;;;;;;;;;;;18.20;99.90;;;;;;5033834;28;19967;-53
2022/07/07 15:07:20;;;;;;;;;;;18.40;99.90;;;;;;5033487;28;20014;-55
2022/07/07 15:10:04;;;;;;;;;;;18.30;99.90;;;;;;5033628;28;19932;-55
2022/07/07 15:12:48;;;;;;;;;;;18.40;99.90;;;;;;5038800;28;19912;-56
2022/07/07 15:15:32;;;;;;;;;;;18.40;99.90;;;;;;5018866;28;20214;-57
2022/07/07 15:18:17;;;;;;;;;;;18.30;99.90;;;;;;5033354;28;19944;-55
2022/07/07 15:21:01;;;;;;;;;;;18.30;99.90;;;;;;5013503;28;19919;-54
2022/07/07 15:23:45;;;;;;;;;;;18.40;99.90;;;;;;5001201;28;20291;-56
2022/07/07 15:26:29;;;;;;;;;;;18.30;99.90;;;;;;5033114;28;19920;-55
2022/07/07 15:29:14;;;;;;;;;;;18.20;99.90;;;;;;5032093;28;20284;-54
2022/07/07 15:31:58;;;;;;;;;;;18.20;99.90;;;;;;5032974;28;19959;-51
2022/07/07 15:34:42;;;;;;;;;;;18.40;99.90;;;;;;5032949;28;19920;-54
2022/07/07 15:37:27;;;;;;;;;;;18.40;99.90;;;;;;5032662;28;20010;-56
2022/07/07 15:40:11;;;;;;;;;;;18.60;99.90;;;;;;5014653;28;19920;-58
2022/07/07 15:42:55;;;;;;;;;;;18.50;99.90;;;;;;5031496;28;20008;-57
2022/07/07 15:45:40;;;;;;;;;;;18.50;99.90;;;;;;5033116;28;20088;-59
2022/07/07 15:48:24;;;;;;;;;;;18.60;99.90;;;;;;5017312;28;19963;-58
2022/07/07 15:51:12;;;;;;;;;;;18.60;99.90;;;;;;5032064;28;19979;-56
2022/07/07 15:53:56;;;;;;;;;;;18.70;99.90;;;;;;5032364;28;19928;-56
2022/07/07 15:56:41;;;;;;;;;;;18.80;99.90;;;;;;5029330;28;19931;-55
2022/07/07 15:59:25;;;;;;;;;;;18.80;99.90;;;;;;4984041;28;19971;-54
2022/07/07 16:02:09;;;;;;;;;;;19.40;99.90;;;;;;5032691;28;19919;-53